createdAt,value
2019-04-25T00:01:09.012Z,32.90
2019-04-25T00:06:17.359Z,32.90
2019-04-25T00:11:24.752Z,33.00
2019-04-25T00:16:32.997Z,33.10
2019-04-25T00:21:42.531Z,33.10
2019-04-25T00:26:52.524Z,33.20
2019-04-25T00:32:01.536Z,33.30
2019-04-25T00:37:08.953Z,33.40
2019-04-25T00:42:16.223Z,33.40
2019-04-25T00:47:23.585Z,33.50
2019-04-25T00:52:31.342Z,33.60
2019-04-25T00:57:42.678Z,33.60
2019-04-25T01:02:52.554Z,33.60
2019-04-25T01:07:59.582Z,33.70
2019-04-25T01:13:07.646Z,33.80
2019-04-25T01:18:15.256Z,33.90
2019-04-25T01:23:23.712Z,34.00
2019-04-25T01:28:31.253Z,34.10
2019-04-25T01:33:39.769Z,34.20
2019-04-25T01:38:49.079Z,34.30
2019-04-25T01:43:59.615Z,34.40
2019-04-25T01:49:06.325Z,34.50
2019-04-25T01:54:14.099Z,34.60
2019-04-25T01:59:21.329Z,34.80
2019-04-25T02:04:29.421Z,34.90
2019-04-25T02:09:37.318Z,35.00
2019-04-25T02:14:45.196Z,35.20
2019-04-25T02:19:54.494Z,35.30
2019-04-25T02:25:01.099Z,35.40
2019-04-25T02:30:10.663Z,35.60
2019-04-25T02:35:17.891Z,35.70
2019-04-25T02:40:25.482Z,35.90
2019-04-25T02:45:34.472Z,36.10
2019-04-25T02:50:41.350Z,36.20
2019-04-25T02:55:48.730Z,36.30
2019-04-25T03:01:02.844Z,36.50
2019-04-25T03:06:07.488Z,36.60
2019-04-25T03:11:15.021Z,36.80
2019-04-25T03:16:21.797Z,36.90
2019-04-25T03:21:31.196Z,37.00
2019-04-25T03:26:40.635Z,37.20
2019-04-25T03:31:47.232Z,37.40
2019-04-25T03:36:54.511Z,37.50
2019-04-25T03:42:02.249Z,37.60
2019-04-25T03:47:09.945Z,37.90
2019-04-25T03:52:17.553Z,38.00
2019-04-25T03:57:24.765Z,38.10
2019-04-25T04:07:55.532Z,38.40
2019-04-25T04:13:04.195Z,38.50
2019-04-25T04:18:14.458Z,38.70
2019-04-25T04:23:23.222Z,38.80
2019-04-25T04:28:30.511Z,38.90
2019-04-25T04:33:37.816Z,39.10
2019-04-25T04:38:45.118Z,39.40
2019-04-25T04:43:54.021Z,39.50
2019-04-25T04:49:03.900Z,39.60
2019-04-25T04:54:13.233Z,39.80
2019-04-25T04:59:19.852Z,39.80
2019-04-25T05:04:28.790Z,39.80
2019-04-25T05:09:36.069Z,39.90
2019-04-25T05:14:43.660Z,40.00
2019-04-25T05:19:51.108Z,40.30
2019-04-25T05:24:58.150Z,40.40
2019-04-25T05:30:09.038Z,40.30
2019-04-25T05:35:16.338Z,40.40
2019-04-25T05:40:24.439Z,40.50
2019-04-25T05:45:34.034Z,40.50
2019-04-25T05:50:41.249Z,40.60
2019-04-25T05:55:48.346Z,40.80
2019-04-25T06:00:56.333Z,41.00
2019-04-25T06:06:04.539Z,41.10
2019-04-25T06:11:15.410Z,41.30
2019-04-25T06:16:25.732Z,41.50
2019-04-25T06:21:33.749Z,41.70
2019-04-25T06:26:43.333Z,41.80
2019-04-25T06:31:50.656Z,42.00
2019-04-25T06:36:59.200Z,42.10
2019-04-25T06:42:06.846Z,42.10
2019-04-25T06:47:15.140Z,42.20
2019-04-25T06:52:27.729Z,42.20
2019-04-25T06:57:34.089Z,42.30
2019-04-25T07:02:41.417Z,42.30
2019-04-25T07:07:49.408Z,42.20
2019-04-25T07:12:58.409Z,42.20
2019-04-25T07:18:06.676Z,42.30
2019-04-25T07:23:14.431Z,42.40
2019-04-25T07:28:44.031Z,42.50
2019-04-25T07:33:53.199Z,42.70
2019-04-25T07:39:08.227Z,42.70
2019-04-25T07:44:11.591Z,42.90
2019-04-25T07:49:19.640Z,43.00
2019-04-25T07:54:27.864Z,43.10
2019-04-25T07:59:36.447Z,43.20
2019-04-25T08:04:45.358Z,43.30
2019-04-25T08:09:54.136Z,43.50
2019-04-25T08:15:01.593Z,43.50
2019-04-25T08:20:09.634Z,43.60
2019-04-25T08:25:17.505Z,43.70
2019-04-25T08:30:24.893Z,43.70
2019-04-25T08:35:34.194Z,43.80
2019-04-25T08:40:44.099Z,43.80
2019-04-25T08:46:13.913Z,43.90
2019-04-25T08:51:50.151Z,43.80
2019-04-25T08:56:59.297Z,43.80
2019-04-25T09:02:11.348Z,43.80
2019-04-25T09:07:18.777Z,43.90
2019-04-25T09:12:28.078Z,44.00
2019-04-25T09:17:36.663Z,43.90
2019-04-25T09:22:45.582Z,43.80
2019-04-25T09:27:54.361Z,43.80
2019-04-25T09:33:03.082Z,43.60
2019-04-25T09:38:11.095Z,43.60
2019-04-25T09:43:18.156Z,43.50
2019-04-25T09:48:25.783Z,43.50
2019-04-25T09:53:34.288Z,43.50
2019-04-25T09:58:44.661Z,43.50
2019-04-25T10:03:55.758Z,43.40
2019-04-25T10:09:05.669Z,43.30
2019-04-25T10:14:16.507Z,43.20
2019-04-25T10:19:23.928Z,43.30
2019-04-25T10:24:31.265Z,43.20
2019-04-25T10:29:44.822Z,43.10
2019-04-25T10:34:47.373Z,43.10
2019-04-25T10:39:55.856Z,43.00
2019-04-25T10:45:04.155Z,43.00
2019-04-25T10:50:30.653Z,42.90
2019-04-25T11:33:49.944Z,39.90
2019-04-25T11:38:59.307Z,40.80
2019-04-25T11:44:07.884Z,41.10
2019-04-25T11:49:16.398Z,41.10
2019-04-25T11:54:24.262Z,41.10
2019-04-25T11:59:33.956Z,41.10
2019-04-25T12:04:42.561Z,41.00
2019-04-25T12:09:50.719Z,41.00
2019-04-25T12:14:58.533Z,40.80
2019-04-25T12:20:07.217Z,40.60
2019-04-25T12:25:15.678Z,40.50
2019-04-25T12:30:36.420Z,40.40
2019-04-25T12:35:34.104Z,40.30
2019-04-25T12:40:43.279Z,40.20
2019-04-25T12:45:52.834Z,40.10
2019-04-25T12:51:00.771Z,40.00
2019-04-25T12:56:09.405Z,39.80
2019-04-25T13:01:17.828Z,39.80
2019-04-25T13:06:25.569Z,39.70
2019-04-25T13:11:34.853Z,39.60
2019-04-25T13:16:44.222Z,39.60
2019-04-25T13:21:52.215Z,39.50
2019-04-25T13:27:01.222Z,39.40
2019-04-25T13:32:10.398Z,39.30
2019-04-25T13:37:18.953Z,39.20
2019-04-25T13:42:27.145Z,39.20
2019-04-25T13:47:36.247Z,39.10
2019-04-25T13:52:44.150Z,39.00
2019-04-25T13:57:53.105Z,39.00
2019-04-25T14:03:01.680Z,38.80
2019-04-25T14:08:10.096Z,38.70
2019-04-25T14:13:17.987Z,38.80
2019-04-25T14:18:27.371Z,38.60
2019-04-25T14:23:35.738Z,38.60
2019-04-25T14:28:44.288Z,38.40
2019-04-25T14:33:52.255Z,38.50
2019-04-25T14:39:00.185Z,38.40
2019-04-25T14:44:09.214Z,38.40
2019-04-25T14:49:17.221Z,38.20
2019-04-25T14:54:26.526Z,38.20
2019-04-25T14:59:34.776Z,38.20
2019-04-25T15:04:42.547Z,38.10
2019-04-25T15:09:50.260Z,38.00
2019-04-25T15:14:58.468Z,38.00
2019-04-25T15:20:08.540Z,37.90
2019-04-25T15:25:16.726Z,37.90
2019-04-25T15:30:29.075Z,37.80
2019-04-25T15:35:37.762Z,37.80
2019-04-25T15:40:47.456Z,37.70
2019-04-25T15:45:57.475Z,37.70
2019-04-25T15:51:06.495Z,37.70
2019-04-25T15:56:15.984Z,37.60
2019-04-25T16:01:24.416Z,37.60
2019-04-25T16:06:32.338Z,37.60
2019-04-25T16:11:41.255Z,37.50
2019-04-25T16:16:50.482Z,37.40
2019-04-25T16:21:58.446Z,37.40
2019-04-25T16:27:08.200Z,37.30
2019-04-25T16:32:20.679Z,37.30
2019-04-25T16:37:27.952Z,37.30
2019-04-25T16:42:37.612Z,37.20
2019-04-25T16:47:46.236Z,37.10
2019-04-25T16:52:54.327Z,37.10
2019-04-25T16:58:02.318Z,37.10
2019-04-25T17:03:10.212Z,37.00
2019-04-25T17:08:20.136Z,36.90
2019-04-25T17:13:29.483Z,36.90
2019-04-25T17:18:39.782Z,36.80
2019-04-25T17:23:49.577Z,36.80
2019-04-25T17:28:58.568Z,36.70
2019-04-25T17:34:08.022Z,36.60
2019-04-25T17:39:17.037Z,36.50
2019-04-25T17:44:25.697Z,36.40
2019-04-25T17:49:34.528Z,36.30
2019-04-25T17:54:43.059Z,36.20
2019-04-25T17:59:51.304Z,36.20
2019-04-25T18:04:59.557Z,36.20
2019-04-25T18:10:09.327Z,36.10
2019-04-25T18:15:18.544Z,36.00
2019-04-25T18:20:27.451Z,35.90
2019-04-25T18:25:35.931Z,35.90
2019-04-25T18:30:46.824Z,35.80
2019-04-25T18:35:55.919Z,35.80
2019-04-25T18:41:04.821Z,35.80
2019-04-25T18:46:14.315Z,35.80
2019-04-25T18:51:22.367Z,35.80
2019-04-25T18:56:31.750Z,35.70
2019-04-25T19:01:41.644Z,35.60
2019-04-25T19:06:55.215Z,35.50
2019-04-25T19:11:58.816Z,35.50
2019-04-25T19:17:08.427Z,35.50
2019-04-25T19:22:16.679Z,35.50
2019-04-25T19:27:25.129Z,35.40
2019-04-25T19:32:53.097Z,35.40
2019-04-25T19:38:02.091Z,35.30
2019-04-25T19:43:11.913Z,35.40
2019-04-25T19:48:19.895Z,35.30
2019-04-25T19:53:28.015Z,35.20
2019-04-25T19:58:36.576Z,35.20
2019-04-25T20:03:51.855Z,35.10
2019-04-25T20:08:56.915Z,35.10
2019-04-25T20:14:05.638Z,35.00
2019-04-25T20:19:13.682Z,34.90
2019-04-25T20:24:22.141Z,34.80
2019-04-25T20:29:30.417Z,34.80
2019-04-25T20:34:38.687Z,34.70
2019-04-25T20:39:47.288Z,34.70
2019-04-25T20:44:56.005Z,34.70
2019-04-25T20:50:04.772Z,34.60
2019-04-25T20:55:12.842Z,34.60
2019-04-25T21:00:23.837Z,34.60
2019-04-25T21:05:32.031Z,34.50
2019-04-25T21:10:40.067Z,34.60
2019-04-25T21:15:50.711Z,34.40
2019-04-25T21:20:57.709Z,34.30
2019-04-25T21:26:05.945Z,34.30
2019-04-25T21:31:14.319Z,34.20
2019-04-25T21:36:22.963Z,34.10
2019-04-25T21:41:32.736Z,34.10
2019-04-25T21:46:40.893Z,34.10
2019-04-25T21:51:48.809Z,34.00
2019-04-25T21:56:57.434Z,33.90
2019-04-25T22:02:05.930Z,33.90
2019-04-25T22:07:14.603Z,33.80
2019-04-25T22:12:22.773Z,33.80
2019-04-25T22:17:30.766Z,33.80
2019-04-25T22:22:39.395Z,33.70
2019-04-25T22:27:47.955Z,33.70
2019-04-25T22:32:57.143Z,33.60
2019-04-25T22:38:06.764Z,33.60
2019-04-25T22:43:15.452Z,33.60
2019-04-25T22:48:24.971Z,33.50
2019-04-25T22:53:33.049Z,33.40
2019-04-25T22:58:42.313Z,33.40
2019-04-25T23:03:51.742Z,33.40
2019-04-25T23:09:00.544Z,33.40
2019-04-25T23:14:10.934Z,33.40
2019-04-25T23:19:19.065Z,33.40
2019-04-25T23:24:30.750Z,33.40
2019-04-25T23:29:39.989Z,33.40
2019-04-25T23:34:48.652Z,33.40
2019-04-25T23:39:57.042Z,33.40
2019-04-25T23:45:07.995Z,33.50
2019-04-25T23:50:17.558Z,33.60
2019-04-25T23:55:25.885Z,33.60
